createdAt,value
2022-11-05T00:02:19.741Z,95774.81
2022-11-05T00:05:39.511Z,95783.47
2022-11-05T00:09:00.180Z,95785.84
2022-11-05T00:12:29.474Z,95789.88
2022-11-05T00:15:49.996Z,95786.22
2022-11-05T00:19:06.856Z,95793.78
2022-11-05T00:22:26.972Z,95793.47
2022-11-05T00:25:29.918Z,95794.88
2022-11-05T00:28:32.817Z,95795.59
2022-11-05T00:31:34.344Z,95803.09
2022-11-05T00:34:35.858Z,95807.13
2022-11-05T00:37:37.457Z,95801.69
2022-11-05T00:40:39.205Z,95808.41
2022-11-05T00:43:59.446Z,95804.91
2022-11-05T00:47:19.593Z,95816.91
2022-11-05T00:50:22.355Z,95817.59
2022-11-05T00:53:23.848Z,95826.25
2022-11-05T00:56:25.446Z,95832.97
2022-11-05T00:59:26.992Z,95824.16
2022-11-05T01:02:28.560Z,95825.72
2022-11-05T01:05:31.687Z,95833.38
2022-11-05T01:08:33.579Z,95835.06
2022-11-05T01:11:36.905Z,95838.41
2022-11-05T01:14:38.528Z,95851.38
2022-11-05T01:17:41.169Z,95847.88
2022-11-05T01:20:42.796Z,95854.72
2022-11-05T01:23:44.341Z,95855.28
2022-11-05T01:26:45.803Z,95864.75
2022-11-05T01:29:47.325Z,95854.97
2022-11-05T01:32:49.346Z,95867.00
2022-11-05T01:35:51.886Z,95861.69
2022-11-05T01:38:53.621Z,95846.75
2022-11-05T01:41:55.118Z,95856.22
2022-11-05T01:45:04.228Z,95860.56
2022-11-05T01:48:15.627Z,95853.72
2022-11-05T01:51:21.922Z,95871.03
2022-11-05T01:54:27.669Z,95869.06
2022-11-05T01:57:30.975Z,95860.84
2022-11-05T02:00:33.637Z,95879.56
2022-11-05T02:03:35.942Z,95878.41
2022-11-05T02:06:46.206Z,95876.31
2022-11-05T02:10:15.615Z,95869.19
2022-11-05T02:13:17.188Z,95866.38
2022-11-05T02:16:27.324Z,95869.03
2022-11-05T02:19:55.706Z,95870.44
2022-11-05T02:23:03.290Z,95870.44
2022-11-05T02:26:07.766Z,95874.63
2022-11-05T02:29:40.129Z,95869.16
2022-11-05T02:32:53.266Z,95870.69
2022-11-05T02:36:10.180Z,95870.56
2022-11-05T02:39:11.663Z,95874.72
2022-11-05T02:42:28.410Z,95877.22
2022-11-05T02:45:38.270Z,95870.94
2022-11-05T02:48:45.928Z,95883.63
2022-11-05T02:51:57.116Z,95878.03
2022-11-05T02:55:12.026Z,95880.25
2022-11-05T02:58:13.547Z,95868.66
2022-11-05T03:01:15.297Z,95881.06
2022-11-05T03:04:20.654Z,95876.28
2022-11-05T03:07:31.031Z,95882.16
2022-11-05T03:10:48.408Z,95889.66
2022-11-05T03:14:08.564Z,95889.38
2022-11-05T03:17:29.326Z,95887.41
2022-11-05T03:21:05.224Z,95884.31
2022-11-05T03:24:30.963Z,95895.47
2022-11-05T03:27:37.748Z,95899.66
2022-11-05T03:30:42.355Z,95896.88
2022-11-05T03:33:44.946Z,95907.19
2022-11-05T03:36:51.460Z,95904.38
2022-11-05T03:39:59.687Z,95913.91
2022-11-05T03:43:03.752Z,95913.75
2022-11-05T03:46:10.803Z,95925.06
2022-11-05T03:49:19.276Z,95928.56
2022-11-05T03:52:26.097Z,95931.22
2022-11-05T03:55:35.420Z,95928.88
2022-11-05T03:58:41.729Z,95945.72
2022-11-05T04:01:44.069Z,95941.41
2022-11-05T04:04:46.117Z,95949.63
2022-11-05T04:08:10.041Z,95951.13
2022-11-05T04:11:34.239Z,95972.97
2022-11-05T04:14:35.753Z,95951.31
2022-11-05T04:17:37.263Z,95952.81
2022-11-05T04:20:57.474Z,95971.66
2022-11-05T04:24:11.000Z,95968.88
2022-11-05T04:27:12.509Z,95966.22
2022-11-05T04:30:19.505Z,95969.72
2022-11-05T04:33:21.116Z,95971.53
2022-11-05T04:36:22.648Z,95963.41
2022-11-05T04:39:24.161Z,95964.53
2022-11-05T04:42:25.691Z,95965.38
2022-11-05T04:45:29.690Z,95971.53
2022-11-05T04:48:31.247Z,95973.34
2022-11-05T04:51:32.842Z,95976.97
2022-11-05T04:54:34.373Z,95975.16
2022-11-05T04:57:36.397Z,95980.63
2022-11-05T05:00:38.093Z,95975.47
2022-11-05T05:03:39.755Z,95974.47
2022-11-05T05:06:41.269Z,95971.00
2022-11-05T05:09:42.800Z,95985.94
2022-11-05T05:12:44.354Z,95989.63
2022-11-05T05:15:45.943Z,95984.72
2022-11-05T05:18:48.771Z,95988.91
2022-11-05T05:21:50.318Z,95996.03
2022-11-05T05:24:53.039Z,95992.56
2022-11-05T05:27:58.097Z,96004.88
2022-11-05T05:31:00.712Z,96011.84
2022-11-05T05:34:03.247Z,96011.16
2022-11-05T05:37:04.881Z,96012.69
2022-11-05T05:40:06.985Z,96024.97
2022-11-05T05:43:08.763Z,96017.19
2022-11-05T05:46:13.516Z,96023.16
2022-11-05T05:49:15.038Z,96025.69
2022-11-05T05:52:16.567Z,96033.66
2022-11-05T05:55:18.066Z,96031.13
2022-11-05T05:58:19.573Z,96039.69
2022-11-05T06:01:21.717Z,96047.50
2022-11-05T06:04:23.316Z,96043.03
2022-11-05T06:07:24.815Z,96049.84
2022-11-05T06:10:26.369Z,96047.34
2022-11-05T06:13:28.395Z,96049.72
2022-11-05T06:16:35.739Z,96050.56
2022-11-05T06:19:37.235Z,96049.59
2022-11-05T06:22:38.922Z,96062.88
2022-11-05T06:25:41.531Z,96066.38
2022-11-05T06:28:43.776Z,96071.69
2022-11-05T06:31:45.313Z,96073.38
2022-11-05T06:34:46.823Z,96068.91
2022-11-05T06:37:48.353Z,96075.72
2022-11-05T06:40:49.890Z,96083.56
2022-11-05T06:43:51.680Z,96081.75
2022-11-05T06:46:53.234Z,96087.75
2022-11-05T06:49:56.173Z,96093.75
2022-11-05T06:52:59.749Z,96103.41
2022-11-05T06:56:05.913Z,96100.88
2022-11-05T06:59:08.549Z,96105.09
2022-11-05T07:02:13.235Z,96082.84
2022-11-05T07:05:16.391Z,96097.41
2022-11-05T07:08:17.945Z,96105.09
2022-11-05T07:11:19.688Z,96109.28
2022-11-05T07:14:21.229Z,96118.94
2022-11-05T07:17:23.178Z,96125.25
2022-11-05T07:20:28.216Z,96130.44
2022-11-05T07:23:32.328Z,96134.75
2022-11-05T07:26:34.786Z,96138.94
2022-11-05T07:29:36.434Z,96141.47
2022-11-05T07:32:39.949Z,96123.44
2022-11-05T07:35:41.499Z,96138.34
2022-11-05T07:38:43.241Z,96144.38
2022-11-05T07:41:44.736Z,96149.38
2022-11-05T07:44:46.298Z,96143.09
2022-11-05T07:47:51.852Z,96149.94
2022-11-05T07:50:53.428Z,96146.31
2022-11-05T07:53:54.971Z,96153.00
2022-11-05T07:56:56.547Z,96161.16
2022-11-05T07:59:58.119Z,96170.38
2022-11-05T08:03:08.265Z,96178.22
2022-11-05T08:06:10.401Z,96171.88
2022-11-05T08:09:12.002Z,96173.41
2022-11-05T08:12:13.581Z,96172.19
2022-11-05T08:15:15.201Z,96176.78
2022-11-05T08:18:17.743Z,96181.13
2022-11-05T08:21:19.265Z,96191.31
2022-11-05T08:24:20.872Z,96173.97
2022-11-05T08:27:22.409Z,96184.28
2022-11-05T08:30:24.600Z,96183.69
2022-11-05T08:33:26.255Z,96187.72
2022-11-05T08:36:27.759Z,96194.56
2022-11-05T08:39:29.367Z,96193.28
2022-11-05T08:42:30.856Z,96196.78
2022-11-05T08:45:33.636Z,96195.94
2022-11-05T08:48:35.214Z,96189.94
2022-11-05T08:51:36.813Z,96202.13
2022-11-05T08:54:38.501Z,96196.78
2022-11-05T08:57:40.107Z,96199.88
2022-11-05T09:00:42.472Z,96207.69
2022-11-05T09:03:44.148Z,96210.94
2022-11-05T09:06:45.732Z,96202.94
2022-11-05T09:09:47.279Z,96213.31
2022-11-05T09:12:48.824Z,96208.00
2022-11-05T09:15:51.197Z,96211.63
2022-11-05T09:18:53.009Z,96212.31
2022-11-05T09:21:54.751Z,96218.66
2022-11-05T09:24:56.267Z,96217.81
2022-11-05T09:28:16.416Z,96224.13
2022-11-05T09:31:18.548Z,96226.78
2022-11-05T09:34:20.079Z,96222.69
2022-11-05T09:37:21.968Z,96227.63
2022-11-05T09:40:25.802Z,96228.59
2022-11-05T09:43:51.670Z,96229.72
2022-11-05T09:47:01.600Z,96231.66
2022-11-05T09:50:07.875Z,96236.16
2022-11-05T09:53:14.352Z,96238.84
2022-11-05T09:56:35.008Z,96234.31
2022-11-05T09:59:44.892Z,96243.03
2022-11-05T10:02:51.442Z,96239.38
2022-11-05T10:05:57.108Z,96244.56
2022-11-05T10:09:23.859Z,96235.44
2022-11-05T10:12:45.640Z,96247.47
2022-11-05T10:15:57.602Z,96241.88
2022-11-05T10:19:07.283Z,96242.25
2022-11-05T10:22:16.190Z,96247.97
2022-11-05T10:25:20.162Z,96246.69
2022-11-05T10:28:29.654Z,96253.91
2022-11-05T10:31:35.964Z,96250.69
2022-11-05T10:34:39.474Z,96254.72
2022-11-05T10:37:41.373Z,96257.75
2022-11-05T10:41:20.617Z,96255.19
2022-11-05T10:44:40.180Z,96256.13
2022-11-05T10:48:01.771Z,96266.88
2022-11-05T10:51:03.463Z,96265.88
2022-11-05T10:54:13.911Z,96265.75
2022-11-05T10:57:30.575Z,96272.06
2022-11-05T11:00:32.253Z,96271.50
2022-11-05T11:03:39.772Z,96267.84
2022-11-05T11:06:48.460Z,96266.19
2022-11-05T11:09:51.098Z,96263.81
2022-11-05T11:12:53.457Z,96278.00
2022-11-05T11:16:12.923Z,96275.75
2022-11-05T11:19:20.374Z,96267.75
2022-11-05T11:22:22.101Z,96275.63
2022-11-05T11:25:25.654Z,96272.25
2022-11-05T11:28:33.603Z,96278.44
2022-11-05T11:31:39.399Z,96282.31
2022-11-05T11:34:42.680Z,96285.69
2022-11-05T11:37:45.758Z,96282.72
2022-11-05T11:40:47.284Z,96292.09
2022-11-05T11:43:49.072Z,96289.56
2022-11-05T11:46:55.060Z,96295.44
2022-11-05T11:49:59.126Z,96293.31
2022-11-05T11:53:17.146Z,96300.16
2022-11-05T11:56:21.280Z,96295.69
2022-11-05T11:59:40.572Z,96295.53
2022-11-05T12:02:54.811Z,96302.38
2022-11-05T12:06:31.107Z,96302.38
2022-11-05T12:09:56.073Z,96294.22
2022-11-05T12:13:19.177Z,96291.56
2022-11-05T12:16:42.131Z,96293.25
2022-11-05T12:20:13.784Z,96301.09
2022-11-05T12:23:30.378Z,96298.28
2022-11-05T12:26:50.793Z,96295.63
2022-11-05T12:29:54.939Z,96304.13
2022-11-05T12:33:08.858Z,96299.66
2022-11-05T12:36:19.085Z,96309.31
2022-11-05T12:39:44.118Z,96301.00
2022-11-05T12:42:48.759Z,96305.19
2022-11-05T12:46:05.367Z,96297.75
2022-11-05T12:49:09.844Z,96302.91
2022-11-05T12:52:29.602Z,96306.41
2022-11-05T12:55:42.784Z,96304.59
2022-11-05T12:59:12.728Z,96314.28
2022-11-05T13:02:33.350Z,96309.94
2022-11-05T13:05:43.387Z,96320.44
2022-11-05T13:08:54.405Z,96314.41
2022-11-05T13:12:10.431Z,96323.59
2022-11-05T13:15:44.112Z,96319.38
2022-11-05T13:19:17.021Z,96314.19
2022-11-05T13:22:40.223Z,96320.38
2022-11-05T13:25:50.055Z,96322.91
2022-11-05T13:29:02.676Z,96323.59
2022-11-05T13:32:28.007Z,96318.25
2022-11-05T13:35:40.570Z,96338.91
2022-11-05T13:39:02.731Z,96330.56
2022-11-05T13:42:10.401Z,96338.81
2022-11-05T13:45:21.029Z,96331.38
2022-11-05T13:48:53.609Z,96330.03
2022-11-05T13:52:47.317Z,96319.63
2022-11-05T13:55:54.641Z,96322.47
2022-11-05T13:59:30.445Z,96329.63
2022-11-05T14:02:51.104Z,96328.09
2022-11-05T14:06:02.118Z,96333.03
2022-11-05T14:09:08.807Z,96336.94
2022-11-05T14:12:21.759Z,96335.41
2022-11-05T14:15:28.753Z,96341.97
2022-11-05T14:18:41.248Z,96338.31
2022-11-05T14:21:53.196Z,96334.97
2022-11-05T14:24:54.765Z,96334.00
2022-11-05T14:27:58.296Z,96342.78
2022-11-05T14:30:59.912Z,96336.66
2022-11-05T14:34:10.217Z,96339.47
2022-11-05T14:37:11.813Z,96341.44
2022-11-05T14:40:26.147Z,96348.91
2022-11-05T14:43:31.825Z,96347.13
2022-11-05T14:46:48.007Z,96353.56
2022-11-05T14:49:59.029Z,96355.84
2022-11-05T14:53:10.375Z,96368.78
2022-11-05T14:56:16.699Z,96365.41
2022-11-05T14:59:24.233Z,96374.53
2022-11-05T15:02:32.172Z,96375.81
2022-11-05T15:05:40.003Z,96376.09
2022-11-05T15:08:47.608Z,96380.06
2022-11-05T15:12:00.297Z,96384.53
2022-11-05T15:15:22.767Z,96386.50
2022-11-05T15:18:33.275Z,96393.97
2022-11-05T15:21:37.846Z,96392.41
2022-11-05T15:24:42.231Z,96395.94
2022-11-05T15:28:05.318Z,96393.13
2022-11-05T15:31:12.997Z,96395.63
2022-11-05T15:34:18.424Z,96390.47
2022-11-05T15:37:24.151Z,96393.66
2022-11-05T15:40:28.473Z,96386.94
2022-11-05T15:43:30.255Z,96396.72
2022-11-05T15:46:31.937Z,96397.56
2022-11-05T15:49:33.808Z,96397.56
2022-11-05T15:52:42.078Z,96408.06
2022-11-05T15:55:53.046Z,96412.56
2022-11-05T15:59:03.026Z,96416.78
2022-11-05T16:02:23.818Z,96416.78
2022-11-05T16:05:28.279Z,96414.13
2022-11-05T16:08:31.485Z,96416.22
2022-11-05T16:11:33.015Z,96423.34
2022-11-05T16:14:35.359Z,96421.00
2022-11-05T16:17:39.890Z,96433.75
2022-11-05T16:20:41.392Z,96441.22
2022-11-05T16:24:00.954Z,96444.16
2022-11-05T16:27:05.326Z,96444.16
2022-11-05T16:30:17.691Z,96439.25
2022-11-05T16:33:19.284Z,96443.63
2022-11-05T16:36:21.731Z,96445.69
2022-11-05T16:39:24.238Z,96445.69
2022-11-05T16:42:36.423Z,96451.16
2022-11-05T16:45:41.255Z,96453.16
2022-11-05T16:48:43.116Z,96455.94
2022-11-05T16:51:44.862Z,96451.59
2022-11-05T16:54:46.418Z,96452.56
2022-11-05T16:57:52.255Z,96464.47
2022-11-05T17:01:02.773Z,96461.69
2022-11-05T17:04:04.397Z,96482.56
2022-11-05T17:07:05.931Z,96483.53
2022-11-05T17:10:07.788Z,96475.84
2022-11-05T17:13:14.857Z,96478.78
2022-11-05T17:16:17.885Z,96485.25
2022-11-05T17:19:19.838Z,96487.19
2022-11-05T17:22:21.334Z,96486.63
2022-11-05T17:25:23.058Z,96496.16
2022-11-05T17:28:24.606Z,96498.28
2022-11-05T17:31:27.279Z,96510.56
2022-11-05T17:34:28.812Z,96510.88
2022-11-05T17:37:30.839Z,96517.03
2022-11-05T17:40:34.421Z,96516.47
2022-11-05T17:43:36.080Z,96513.25
2022-11-05T17:46:37.602Z,96515.78
2022-11-05T17:49:39.136Z,96520.41
2022-11-05T17:52:40.738Z,96526.69
2022-11-05T17:55:44.012Z,96525.84
2022-11-05T17:58:45.653Z,96534.69
2022-11-05T18:01:47.391Z,96529.47
2022-11-05T18:04:49.072Z,96530.63
2022-11-05T18:07:51.050Z,96531.59
2022-11-05T18:10:53.144Z,96530.88
2022-11-05T18:13:54.673Z,96540.69
2022-11-05T18:17:00.048Z,96540.13
2022-11-05T18:20:02.471Z,96541.97
2022-11-05T18:23:04.272Z,96546.44
2022-11-05T18:26:14.271Z,96535.06
2022-11-05T18:29:15.988Z,96521.91
2022-11-05T18:32:17.912Z,96529.75
2022-11-05T18:35:20.479Z,96536.19
2022-11-05T18:38:22.021Z,96539.69
2022-11-05T18:41:24.139Z,96538.16
2022-11-05T18:44:25.763Z,96538.00
2022-11-05T18:47:27.339Z,96527.50
2022-11-05T18:50:29.423Z,96528.19
2022-11-05T18:53:30.972Z,96519.25
2022-11-05T18:56:32.597Z,96519.66
2022-11-05T18:59:38.204Z,96530.00
2022-11-05T19:02:40.980Z,96529.47
2022-11-05T19:05:42.654Z,96539.69
2022-11-05T19:08:44.757Z,96548.78
2022-11-05T19:11:46.356Z,96545.53
2022-11-05T19:14:47.905Z,96554.63
2022-11-05T19:17:49.473Z,96560.22
2022-11-05T19:20:50.979Z,96570.97
2022-11-05T19:23:53.484Z,96576.47
2022-11-05T19:26:55.445Z,96566.06
2022-11-05T19:29:57.041Z,96572.25
2022-11-05T19:32:58.599Z,96567.91
2022-11-05T19:36:03.820Z,96556.53
2022-11-05T19:39:08.954Z,96563.53
2022-11-05T19:42:10.510Z,96561.00
2022-11-05T19:45:38.354Z,96560.34
2022-11-05T19:48:33.755Z,96558.50
2022-11-05T19:51:35.438Z,96548.84
2022-11-05T19:54:37.479Z,96551.50
2022-11-05T19:57:39.111Z,96547.03
2022-11-05T20:00:40.636Z,96554.03
2022-11-05T20:03:42.337Z,96552.34
2022-11-05T20:06:44.476Z,96560.34
2022-11-05T20:09:46.408Z,96564.69
2022-11-05T20:12:47.949Z,96563.97
2022-11-05T20:15:49.618Z,96564.81
2022-11-05T20:18:51.740Z,96563.97
2022-11-05T20:21:53.356Z,96567.59
2022-11-05T20:24:54.874Z,96564.22
2022-11-05T20:27:57.205Z,96572.91
2022-11-05T20:30:59.323Z,96576.41
2022-11-05T20:34:00.843Z,96571.34
2022-11-05T20:37:02.547Z,96570.66
2022-11-05T20:40:04.587Z,96576.13
2022-11-05T20:43:06.382Z,96562.75
2022-11-05T20:46:11.328Z,96571.72
2022-11-05T20:49:13.410Z,96559.38
2022-11-05T20:52:17.515Z,96559.94
2022-11-05T20:55:19.437Z,96562.28
2022-11-05T20:58:21.247Z,96562.09
2022-11-05T21:01:23.193Z,96566.97
2022-11-05T21:04:24.974Z,96588.09
2022-11-05T21:07:26.779Z,96584.81
2022-11-05T21:10:28.649Z,96578.59
2022-11-05T21:13:30.544Z,96592.91
2022-11-05T21:16:32.359Z,96582.41
2022-11-05T21:19:56.660Z,96569.56
2022-11-05T21:23:01.906Z,96577.09
2022-11-05T21:26:08.482Z,96581.34
2022-11-05T21:29:10.882Z,96579.31
2022-11-05T21:32:12.779Z,96594.69
2022-11-05T21:35:15.170Z,96587.47
2022-11-05T21:38:18.260Z,96591.13
2022-11-05T21:41:20.102Z,96593.16
2022-11-05T21:44:21.846Z,96610.56
2022-11-05T21:47:23.712Z,96606.47
2022-11-05T21:50:45.508Z,96578.72
2022-11-05T21:54:06.730Z,96596.44
2022-11-05T21:57:33.210Z,96586.94
2022-11-05T22:00:35.190Z,96582.53
2022-11-05T22:03:36.903Z,96585.50
2022-11-05T22:06:38.652Z,96581.78
2022-11-05T22:09:40.668Z,96593.47
2022-11-05T22:12:42.413Z,96583.13
2022-11-05T22:15:53.920Z,96596.97
2022-11-05T22:18:59.160Z,96586.59
2022-11-05T22:22:01.390Z,96582.72
2022-11-05T22:25:04.092Z,96595.88
2022-11-05T22:28:05.966Z,96594.44
2022-11-05T22:31:15.663Z,96604.19
2022-11-05T22:34:17.600Z,96585.72
2022-11-05T22:37:19.474Z,96594.41
2022-11-05T22:40:24.027Z,96577.03
2022-11-05T22:43:26.078Z,96597.63
2022-11-05T22:46:28.005Z,96569.06
2022-11-05T22:49:29.837Z,96587.97
2022-11-05T22:52:32.838Z,96572.06
2022-11-05T22:55:39.307Z,96574.00
2022-11-05T22:58:41.357Z,96583.47
2022-11-05T23:01:44.854Z,96579.28
2022-11-05T23:04:46.931Z,96581.41
2022-11-05T23:08:07.372Z,96573.34
2022-11-05T23:11:41.098Z,96579.50
2022-11-05T23:14:42.925Z,96586.69
2022-11-05T23:18:03.203Z,96585.22
2022-11-05T23:21:23.542Z,96593.88
2022-11-05T23:24:25.335Z,96601.22
2022-11-05T23:27:33.012Z,96602.28
2022-11-05T23:30:34.814Z,96590.25
2022-11-05T23:33:37.471Z,96595.56
2022-11-05T23:36:57.905Z,96571.06
2022-11-05T23:39:59.767Z,96561.28
2022-11-05T23:43:20.091Z,96591.16
2022-11-05T23:46:40.529Z,96566.66
2022-11-05T23:49:42.268Z,96581.88
2022-11-05T23:52:44.073Z,96564.88
2022-11-05T23:55:45.780Z,96536.19
2022-11-05T23:58:47.730Z,96553.50
